Etusivu
METAR-TAF:

METAR-TAF

Lentoasemat :

Menorca, Espanja

Leveyspiiri: 39-52N, Pituuspiiri: 004-14E, korkeus merenpinnasta: 87 m

Tämänhetkinen sää

Tämä raportti tehtiin 33 minuuttia sitten, kello 07.30 UTC
Tuuli 19 kn pohjoisesta
Lämpötila 15°C
Kosteus 51%
Ilmanpaine 1016 hPa
Näkyvyys 10 km tai enemmän
ei pilviä alle 1500 m:ssä eikä cumulonimbus-pilviä

METAR: LEMH 210730Z 01019KT CAVOK 15/05 Q1016

Aika: 10:03 (08:03 UTC)

Sääennuste

Tämä raportti tehtiin 6 tuntia ja 3 minuuttia sitten, kello 02.00 UTC
Ennuste voimassa 21. päivästä klo 03 UTC - 22. päivään klo 03 UTC
Tuuli 15 kn pohjoisesta
Näkyvyys 10 km tai enemmän
Muutamia pilviä 2500 ft:n korkeudessa
Ajoittain
21. päivästä klo 06 UTC - 21. päivään klo 16 UTC
Tuuli 15 kn pohjoisesta puuskistuen 30 kn:hen
Tulossa
21. päivästä klo 18 UTC - 21. päivään klo 21 UTC
Tuuli 5 kn pohjoisesta

TAF: LEMH 210200Z 2103/2203 01015KT 9999 FEW025 TX16/2112Z TN09/2106Z TEMPO 2106/2116 35015G30KT BECMG 2118/2121 35005KT

Säähavainnot ja -ennusteet yli 4000 lentoasemalta (METAR- ja TAF-raportit).

Käytössä olevat sääasemat on merkitty karttaan keltaisilla ja punaisilla pisteillä.

Aseta hiiri pisteen päälle nähdäksesi sääaseman nimen.

Klikkaa sitten nähdäksesi säähavainnot ja -ennusteet.

Kartan vaihtaminen: klikkaa mustalla rastilla varustettuja vihreitä pisteitä, niin voit zoomata sisään; viivalla varustettua vihreää pistettä, niin voit zoomata ulos tai vihreitä nuolia, niin pääset viereisille kartoille.


METAR-TAF: